createdAt,value
2022-10-09T00:00:49.968Z,4.09
2022-10-09T00:03:17.737Z,4.12
2022-10-09T00:05:45.655Z,4.11
2022-10-09T00:08:12.742Z,4.11
2022-10-09T00:10:43.403Z,4.12
2022-10-09T00:13:10.253Z,4.15
2022-10-09T00:15:42.468Z,4.10
2022-10-09T00:18:10.187Z,4.08
2022-10-09T00:20:42.817Z,4.06
2022-10-09T00:23:10.796Z,4.05
2022-10-09T00:26:13.319Z,4.05
2022-10-09T00:28:40.198Z,4.01
2022-10-09T00:31:09.318Z,4.00
2022-10-09T00:33:36.837Z,3.96
2022-10-09T00:36:16.919Z,3.93
2022-10-09T00:38:43.771Z,3.81
2022-10-09T00:41:16.533Z,3.73
2022-10-09T00:43:57.014Z,3.67
2022-10-09T00:46:41.546Z,3.70
2022-10-09T00:49:07.858Z,3.75
2022-10-09T00:51:35.604Z,3.72
2022-10-09T00:54:05.441Z,3.75
2022-10-09T00:56:35.274Z,3.72
2022-10-09T00:59:03.963Z,3.72
2022-10-09T01:01:30.667Z,3.68
2022-10-09T01:03:57.148Z,3.70
2022-10-09T01:06:46.856Z,3.70
2022-10-09T01:10:00.106Z,3.62
2022-10-09T01:12:36.079Z,3.60
2022-10-09T01:15:24.206Z,3.54
2022-10-09T01:18:06.957Z,3.53
2022-10-09T01:20:46.831Z,3.49
2022-10-09T01:23:36.937Z,3.48
2022-10-09T01:26:15.933Z,3.46
2022-10-09T01:28:46.917Z,3.45
2022-10-09T01:31:15.598Z,3.43
2022-10-09T01:33:42.689Z,3.38
2022-10-09T01:36:10.311Z,3.33
2022-10-09T01:38:40.344Z,3.32
2022-10-09T01:41:08.196Z,3.33
2022-10-09T01:43:35.078Z,3.31
2022-10-09T01:46:18.863Z,3.33
2022-10-09T01:48:51.400Z,3.29
2022-10-09T01:51:21.800Z,3.28
2022-10-09T01:53:51.062Z,3.25
2022-10-09T01:56:22.177Z,3.22
2022-10-09T01:58:52.937Z,3.20
2022-10-09T02:01:32.718Z,3.18
2022-10-09T02:04:02.334Z,3.17
2022-10-09T02:06:31.164Z,3.18
2022-10-09T02:08:58.539Z,3.20
2022-10-09T02:11:29.477Z,3.18
2022-10-09T02:13:56.382Z,3.16
2022-10-09T02:16:37.308Z,3.13
2022-10-09T02:19:12.036Z,3.09
2022-10-09T02:21:44.038Z,3.04
2022-10-09T02:24:17.917Z,3.01
2022-10-09T02:26:44.417Z,2.96
2022-10-09T02:29:12.394Z,2.94
2022-10-09T02:31:41.565Z,2.93
2022-10-09T02:34:12.463Z,2.88
2022-10-09T02:36:39.588Z,2.81
2022-10-09T02:39:07.477Z,2.81
2022-10-09T02:41:34.760Z,2.75
2022-10-09T02:44:02.063Z,2.75
2022-10-09T02:46:28.946Z,2.74
2022-10-09T02:48:55.391Z,2.74
2022-10-09T02:51:22.230Z,2.72
2022-10-09T02:53:48.920Z,2.67
2022-10-09T02:56:15.294Z,2.72
2022-10-09T02:58:41.963Z,2.72
2022-10-09T03:01:08.519Z,2.69
2022-10-09T03:03:35.044Z,2.67
2022-10-09T03:06:02.167Z,2.68
2022-10-09T03:08:28.651Z,2.70
2022-10-09T03:11:01.063Z,2.72
2022-10-09T03:13:27.662Z,2.72
2022-10-09T03:15:54.200Z,2.66
2022-10-09T03:18:22.817Z,2.63
2022-10-09T03:20:49.228Z,2.59
2022-10-09T03:23:15.757Z,2.57
2022-10-09T03:25:42.681Z,2.53
2022-10-09T03:28:09.216Z,2.49
2022-10-09T03:30:35.684Z,2.47
2022-10-09T03:33:02.352Z,2.40
2022-10-09T03:35:28.720Z,2.39
2022-10-09T03:37:56.221Z,2.42
2022-10-09T03:40:22.611Z,2.45
2022-10-09T03:42:49.294Z,2.47
2022-10-09T03:45:15.975Z,2.50
2022-10-09T03:47:42.511Z,2.54
2022-10-09T03:50:09.633Z,2.54
2022-10-09T03:52:36.280Z,2.52
2022-10-09T03:55:03.069Z,2.51
2022-10-09T03:57:29.466Z,2.47
2022-10-09T03:59:55.946Z,2.45
2022-10-09T04:02:22.404Z,2.47
2022-10-09T04:04:48.920Z,2.49
2022-10-09T04:07:15.310Z,2.46
2022-10-09T04:09:41.762Z,2.43
2022-10-09T04:12:08.357Z,2.40
2022-10-09T04:14:34.787Z,2.35
2022-10-09T04:17:01.172Z,2.28
2022-10-09T04:19:27.733Z,2.24
2022-10-09T04:21:54.195Z,2.19
2022-10-09T04:24:20.717Z,2.18
2022-10-09T04:26:47.148Z,2.19
2022-10-09T04:29:13.611Z,2.14
2022-10-09T04:31:40.119Z,2.12
2022-10-09T04:34:06.636Z,2.04
2022-10-09T04:36:33.165Z,2.04
2022-10-09T04:38:59.591Z,2.06
2022-10-09T04:41:26.098Z,2.01
2022-10-09T04:43:56.252Z,2.05
2022-10-09T04:46:23.815Z,2.08
2022-10-09T04:48:50.636Z,2.11
2022-10-09T04:51:18.555Z,2.19
2022-10-09T04:53:46.755Z,2.21
2022-10-09T04:56:16.003Z,2.20
2022-10-09T04:58:42.545Z,2.22
2022-10-09T05:01:22.641Z,2.18
2022-10-09T05:06:17.844Z,2.11
2022-10-09T05:08:44.723Z,2.08
2022-10-09T05:11:14.503Z,2.00
2022-10-09T05:13:45.096Z,1.92
2022-10-09T05:16:18.112Z,1.84
2022-10-09T05:18:47.072Z,1.77
2022-10-09T05:21:15.802Z,1.79
2022-10-09T05:23:42.485Z,1.71
2022-10-09T05:26:12.584Z,1.68
2022-10-09T05:28:39.224Z,1.70
2022-10-09T05:31:07.297Z,1.73
2022-10-09T05:33:34.264Z,1.71
2022-10-09T05:36:04.823Z,1.74
2022-10-09T05:38:33.147Z,1.70
2022-10-09T05:41:02.180Z,1.71
2022-10-09T05:43:31.757Z,1.68
2022-10-09T05:46:09.420Z,1.65
2022-10-09T05:48:37.732Z,1.67
2022-10-09T05:51:12.559Z,1.66
2022-10-09T05:53:40.506Z,1.67
2022-10-09T05:56:10.786Z,1.73
2022-10-09T05:58:37.177Z,1.77
2022-10-09T06:01:03.637Z,1.77
2022-10-09T06:03:30.167Z,1.81
2022-10-09T06:06:01.171Z,1.82
2022-10-09T06:08:28.743Z,1.86
2022-10-09T06:10:55.122Z,1.91
2022-10-09T06:13:21.848Z,1.93
2022-10-09T06:15:54.767Z,1.95
2022-10-09T06:18:21.791Z,1.93
2022-10-09T06:20:59.992Z,1.92
2022-10-09T06:23:27.407Z,1.87
2022-10-09T06:25:56.123Z,1.86
2022-10-09T06:28:23.141Z,1.88
2022-10-09T06:30:50.289Z,1.87
2022-10-09T06:33:17.144Z,1.88
2022-10-09T06:35:43.755Z,1.91
2022-10-09T06:38:10.572Z,1.96
2022-10-09T06:40:38.067Z,2.01
2022-10-09T06:43:05.449Z,2.09
2022-10-09T06:45:37.792Z,2.08
2022-10-09T06:48:04.539Z,2.07
2022-10-09T06:50:30.928Z,2.08
2022-10-09T06:52:57.466Z,2.12
2022-10-09T06:55:28.517Z,2.20
2022-10-09T06:57:55.323Z,2.26
2022-10-09T07:00:21.737Z,2.32
2022-10-09T07:02:49.823Z,2.36
2022-10-09T07:05:16.904Z,2.42
2022-10-09T07:07:43.396Z,2.45
2022-10-09T07:10:10.262Z,2.50
2022-10-09T07:12:37.958Z,2.59
2022-10-09T07:15:06.615Z,2.68
2022-10-09T07:17:33.099Z,2.79
2022-10-09T07:19:59.626Z,2.86
2022-10-09T07:22:27.073Z,2.92
2022-10-09T07:24:53.813Z,3.07
2022-10-09T07:27:20.236Z,3.11
2022-10-09T07:29:46.801Z,3.19
2022-10-09T07:32:13.173Z,3.35
2022-10-09T07:34:40.783Z,3.51
2022-10-09T07:37:07.167Z,3.65
2022-10-09T07:39:34.894Z,3.73
2022-10-09T07:42:02.317Z,3.78
2022-10-09T07:44:29.014Z,3.79
2022-10-09T07:46:55.441Z,3.89
2022-10-09T07:49:22.095Z,3.98
2022-10-09T07:51:48.529Z,4.10
2022-10-09T07:54:15.102Z,4.24
2022-10-09T07:56:41.582Z,4.28
2022-10-09T07:59:12.632Z,4.46
2022-10-09T08:01:39.991Z,4.68
2022-10-09T08:04:06.870Z,4.76
2022-10-09T08:06:34.420Z,5.01
2022-10-09T08:09:03.624Z,5.25
2022-10-09T08:11:30.848Z,5.45
2022-10-09T08:13:58.163Z,5.58
2022-10-09T08:16:27.157Z,5.83
2022-10-09T08:18:55.639Z,5.99
2022-10-09T08:21:22.149Z,6.19
2022-10-09T08:23:52.621Z,6.50
2022-10-09T08:26:20.615Z,6.68
2022-10-09T08:28:59.102Z,6.91
2022-10-09T08:31:27.489Z,7.18
2022-10-09T08:33:55.968Z,7.36
2022-10-09T08:36:23.092Z,7.59
2022-10-09T08:38:49.730Z,7.76
2022-10-09T08:41:41.949Z,7.89
2022-10-09T08:44:19.351Z,8.18
2022-10-09T08:47:13.307Z,8.28
2022-10-09T08:50:08.877Z,8.43
2022-10-09T08:52:50.066Z,8.63
2022-10-09T08:55:31.441Z,8.92
2022-10-09T08:58:04.331Z,9.05
2022-10-09T09:00:36.717Z,9.11
2022-10-09T09:03:33.991Z,9.19
2022-10-09T09:06:09.686Z,9.46
2022-10-09T09:08:39.138Z,9.55
2022-10-09T09:11:21.764Z,9.68
2022-10-09T09:14:07.331Z,9.80
2022-10-09T09:16:58.431Z,9.93
2022-10-09T09:19:33.980Z,10.05
2022-10-09T09:22:00.603Z,10.15
2022-10-09T09:24:36.209Z,10.28
2022-10-09T09:27:10.283Z,10.42
2022-10-09T09:29:43.344Z,10.53
2022-10-09T09:32:17.484Z,10.67
2022-10-09T09:34:44.554Z,10.84
2022-10-09T09:37:13.153Z,10.91
2022-10-09T09:40:34.925Z,10.95
2022-10-09T09:42:28.164Z,11.11
2022-10-09T09:45:06.195Z,11.39
2022-10-09T09:47:55.915Z,11.44
2022-10-09T09:51:10.144Z,11.57
2022-10-09T09:53:31.962Z,11.75
2022-10-09T09:55:58.918Z,11.84
2022-10-09T09:58:35.412Z,12.06
2022-10-09T10:01:03.680Z,12.18
2022-10-09T10:03:31.178Z,12.25
2022-10-09T10:05:57.721Z,12.35
2022-10-09T10:08:29.698Z,12.45
2022-10-09T10:11:17.378Z,12.52
2022-10-09T10:13:49.278Z,12.57
2022-10-09T10:16:27.847Z,12.66
2022-10-09T10:18:57.569Z,12.72
2022-10-09T10:21:24.637Z,12.83
2022-10-09T10:23:56.458Z,12.90
2022-10-09T10:26:30.839Z,12.91
2022-10-09T10:29:12.355Z,12.92
2022-10-09T10:31:55.100Z,12.95
2022-10-09T10:34:27.863Z,13.06
2022-10-09T10:37:10.270Z,13.26
2022-10-09T10:40:07.193Z,13.40
2022-10-09T10:42:47.952Z,13.48
2022-10-09T10:45:24.611Z,13.50
2022-10-09T10:47:55.115Z,13.61
2022-10-09T10:50:25.907Z,13.60
2022-10-09T10:53:33.769Z,13.69
2022-10-09T10:56:08.493Z,13.76
2022-10-09T10:58:59.879Z,13.95
2022-10-09T11:01:41.378Z,14.00
2022-10-09T11:04:17.814Z,14.15
2022-10-09T11:07:14.227Z,14.20
2022-10-09T11:09:52.115Z,14.35
2022-10-09T11:12:30.165Z,14.30
2022-10-09T11:15:19.165Z,14.41
2022-10-09T11:17:54.330Z,14.50
2022-10-09T11:20:35.931Z,14.55
2022-10-09T11:23:44.738Z,14.55
2022-10-09T11:26:28.826Z,14.70
2022-10-09T11:29:08.760Z,14.79
2022-10-09T11:31:52.507Z,14.74
2022-10-09T11:34:26.624Z,14.75
2022-10-09T11:36:53.582Z,14.88
2022-10-09T11:39:23.843Z,14.89
2022-10-09T11:41:52.656Z,14.91
2022-10-09T11:44:31.518Z,14.97
2022-10-09T11:47:23.841Z,14.95
2022-10-09T11:50:08.260Z,15.02
2022-10-09T11:53:14.810Z,15.10
2022-10-09T11:55:42.650Z,15.14
2022-10-09T11:58:14.852Z,15.23
2022-10-09T12:00:42.575Z,15.26
2022-10-09T12:03:24.945Z,15.20
2022-10-09T12:06:01.623Z,15.16
2022-10-09T12:08:28.294Z,15.16
2022-10-09T12:10:59.256Z,15.19
2022-10-09T12:13:36.938Z,15.33
2022-10-09T12:16:03.920Z,15.33
2022-10-09T12:18:36.303Z,15.35
2022-10-09T12:21:16.991Z,15.38
2022-10-09T12:23:46.714Z,15.55
2022-10-09T12:26:15.206Z,15.62
2022-10-09T12:28:48.447Z,15.62
2022-10-09T12:31:38.398Z,15.65
2022-10-09T12:34:32.349Z,15.56
2022-10-09T12:37:14.222Z,15.55
2022-10-09T12:39:41.484Z,15.60
2022-10-09T12:42:18.479Z,15.66
2022-10-09T12:44:47.942Z,15.66
2022-10-09T12:47:20.631Z,15.74
2022-10-09T12:49:58.469Z,15.66
2022-10-09T12:52:25.374Z,15.65
2022-10-09T12:54:51.931Z,15.78
2022-10-09T12:57:21.755Z,15.76
2022-10-09T12:59:51.353Z,15.82
2022-10-09T13:02:19.927Z,15.86
2022-10-09T13:04:59.576Z,15.89
2022-10-09T13:07:28.826Z,15.94
2022-10-09T13:10:00.381Z,15.90
2022-10-09T13:12:28.883Z,15.93
2022-10-09T13:15:19.908Z,15.85
2022-10-09T13:17:46.807Z,15.88
2022-10-09T13:20:16.512Z,15.89
2022-10-09T13:23:25.871Z,15.98
2022-10-09T13:25:52.376Z,15.95
2022-10-09T13:28:20.642Z,16.02
2022-10-09T13:30:48.391Z,16.05
2022-10-09T13:33:16.384Z,16.12
2022-10-09T13:35:43.226Z,16.04
2022-10-09T13:38:15.649Z,16.03
2022-10-09T13:40:42.753Z,16.16
2022-10-09T13:43:18.721Z,16.21
2022-10-09T13:45:45.435Z,16.24
2022-10-09T13:48:12.985Z,16.35
2022-10-09T13:50:39.404Z,16.31
2022-10-09T13:53:09.202Z,16.33
2022-10-09T13:55:35.961Z,16.33
2022-10-09T13:58:02.887Z,16.35
2022-10-09T14:00:29.538Z,16.33
2022-10-09T14:02:56.366Z,16.41
2022-10-09T14:05:23.639Z,16.44
2022-10-09T14:07:50.299Z,16.28
2022-10-09T14:10:21.714Z,16.38
2022-10-09T14:12:53.020Z,16.40
2022-10-09T14:15:19.604Z,16.38
2022-10-09T14:17:46.323Z,16.42
2022-10-09T14:20:19.964Z,16.38
2022-10-09T14:22:46.505Z,16.31
2022-10-09T14:25:22.517Z,16.26
2022-10-09T14:27:48.900Z,16.30
2022-10-09T14:30:17.666Z,16.33
2022-10-09T14:32:44.220Z,16.34
2022-10-09T14:35:10.872Z,16.34
2022-10-09T14:37:41.496Z,16.31
2022-10-09T14:40:10.211Z,16.32
2022-10-09T14:42:37.814Z,16.29
2022-10-09T14:45:05.625Z,16.22
2022-10-09T14:47:32.182Z,16.19
2022-10-09T14:49:58.652Z,16.07
2022-10-09T14:52:25.338Z,16.11
2022-10-09T14:54:51.809Z,16.06
2022-10-09T14:57:18.263Z,16.03
2022-10-09T14:59:44.825Z,15.93
2022-10-09T15:02:15.517Z,15.93
2022-10-09T15:04:42.125Z,15.87
2022-10-09T15:07:08.739Z,15.87
2022-10-09T15:09:35.222Z,15.85
2022-10-09T15:12:01.591Z,15.94
2022-10-09T15:14:28.108Z,15.86
2022-10-09T15:16:54.507Z,15.82
2022-10-09T15:19:20.985Z,15.78
2022-10-09T15:21:47.373Z,15.71
2022-10-09T15:24:13.835Z,15.70
2022-10-09T15:26:41.565Z,15.66
2022-10-09T15:29:08.730Z,15.61
2022-10-09T15:31:38.185Z,15.60
2022-10-09T15:34:06.117Z,15.52
2022-10-09T15:36:35.382Z,15.46
2022-10-09T15:39:05.736Z,15.41
2022-10-09T15:41:34.747Z,15.32
2022-10-09T15:44:04.133Z,15.32
2022-10-09T15:46:30.868Z,15.27
2022-10-09T15:48:57.546Z,15.18
2022-10-09T15:51:24.639Z,15.11
2022-10-09T15:53:52.601Z,15.04
2022-10-09T15:56:24.313Z,14.96
2022-10-09T15:58:51.888Z,14.90
2022-10-09T16:01:19.064Z,14.80
2022-10-09T16:03:45.877Z,14.73
2022-10-09T16:06:14.597Z,14.64
2022-10-09T16:08:42.004Z,14.51
2022-10-09T16:11:10.672Z,14.35
2022-10-09T16:13:39.763Z,14.17
2022-10-09T16:16:09.783Z,14.01
2022-10-09T16:18:36.987Z,13.83
2022-10-09T16:21:13.887Z,13.64
2022-10-09T16:23:41.333Z,13.40
2022-10-09T16:26:08.828Z,13.12
2022-10-09T16:28:35.673Z,12.92
2022-10-09T16:31:02.272Z,12.65
2022-10-09T16:33:29.140Z,12.44
2022-10-09T16:36:07.358Z,12.16
2022-10-09T16:38:33.803Z,11.95
2022-10-09T16:41:02.569Z,11.77
2022-10-09T16:43:33.410Z,11.59
2022-10-09T16:46:11.424Z,11.42
2022-10-09T16:48:38.029Z,11.24
2022-10-09T16:51:10.004Z,11.09
2022-10-09T16:53:36.713Z,10.94
2022-10-09T16:56:12.466Z,10.80
2022-10-09T16:58:39.777Z,10.68
2022-10-09T17:01:09.936Z,10.54
2022-10-09T17:03:40.390Z,10.38
2022-10-09T17:06:12.002Z,10.26
2022-10-09T17:08:39.068Z,10.17
2022-10-09T17:11:10.183Z,10.12
2022-10-09T17:13:37.030Z,10.03
2022-10-09T17:16:09.115Z,9.89
2022-10-09T17:18:36.449Z,9.78
2022-10-09T17:21:04.703Z,9.65
2022-10-09T17:23:31.513Z,9.57
2022-10-09T17:25:58.321Z,9.55
2022-10-09T17:28:25.281Z,9.52
2022-10-09T17:30:52.045Z,9.36
2022-10-09T17:33:19.918Z,9.24
2022-10-09T17:35:46.889Z,9.15
2022-10-09T17:38:13.417Z,9.07
2022-10-09T17:40:40.212Z,9.09
2022-10-09T17:43:08.645Z,9.01
2022-10-09T17:45:42.278Z,8.97
2022-10-09T17:48:09.580Z,8.98
2022-10-09T17:50:36.920Z,8.92
2022-10-09T17:53:04.467Z,8.87
2022-10-09T17:55:31.413Z,8.83
2022-10-09T17:57:57.905Z,8.82
2022-10-09T18:00:24.347Z,8.77
2022-10-09T18:02:50.842Z,8.74
2022-10-09T18:05:18.385Z,8.71
2022-10-09T18:07:44.839Z,8.68
2022-10-09T18:10:11.405Z,8.64
2022-10-09T18:12:37.768Z,8.66
2022-10-09T18:15:04.750Z,8.63
2022-10-09T18:17:33.365Z,8.61
2022-10-09T18:20:00.194Z,8.67
2022-10-09T18:22:26.618Z,8.66
2022-10-09T18:24:53.218Z,8.64
2022-10-09T18:27:20.264Z,8.62
2022-10-09T18:29:46.824Z,8.73
2022-10-09T18:32:13.246Z,8.73
2022-10-09T18:34:40.713Z,8.74
2022-10-09T18:37:09.494Z,8.72
2022-10-09T18:39:36.046Z,8.75
2022-10-09T18:42:03.926Z,8.75
2022-10-09T18:44:33.840Z,8.76
2022-10-09T18:47:00.424Z,8.83
2022-10-09T18:49:31.601Z,8.83
2022-10-09T18:51:59.934Z,8.94
2022-10-09T18:54:28.245Z,8.90
2022-10-09T18:56:54.810Z,9.03
2022-10-09T18:59:22.779Z,9.01
2022-10-09T19:01:49.288Z,8.94
2022-10-09T19:04:15.990Z,9.06
2022-10-09T19:06:42.540Z,9.01
2022-10-09T19:09:08.943Z,9.00
2022-10-09T19:11:35.500Z,9.04
2022-10-09T19:14:02.033Z,9.04
2022-10-09T19:16:30.494Z,9.05
2022-10-09T19:18:56.986Z,8.97
2022-10-09T19:21:23.654Z,8.89
2022-10-09T19:23:51.604Z,8.83
2022-10-09T19:26:18.902Z,8.79
2022-10-09T19:28:45.688Z,8.86
2022-10-09T19:31:14.998Z,8.80
2022-10-09T19:33:42.644Z,8.78
2022-10-09T19:36:13.441Z,8.76
2022-10-09T19:38:40.979Z,8.80
2022-10-09T19:41:11.035Z,8.82
2022-10-09T19:43:38.091Z,8.83
2022-10-09T19:46:08.595Z,8.89
2022-10-09T19:48:36.643Z,8.87
2022-10-09T19:51:10.201Z,8.76
2022-10-09T19:53:36.661Z,8.75
2022-10-09T19:56:10.237Z,8.71
2022-10-09T19:58:40.699Z,8.63
2022-10-09T20:01:08.783Z,8.51
2022-10-09T20:03:35.291Z,8.44
2022-10-09T20:06:02.661Z,8.52
2022-10-09T20:08:29.130Z,8.44
2022-10-09T20:11:03.117Z,8.40
2022-10-09T20:13:31.076Z,8.39
2022-10-09T20:15:59.931Z,8.33
2022-10-09T20:18:27.316Z,8.29
2022-10-09T20:20:54.049Z,8.28
2022-10-09T20:23:20.854Z,8.32
2022-10-09T20:25:47.459Z,8.36
2022-10-09T20:28:15.343Z,8.29
2022-10-09T20:30:42.691Z,8.33
2022-10-09T20:33:09.563Z,8.30
2022-10-09T20:35:45.147Z,8.29
2022-10-09T20:38:11.966Z,8.36
2022-10-09T20:40:38.340Z,8.29
2022-10-09T20:43:04.954Z,8.38
2022-10-09T20:45:31.441Z,8.37
2022-10-09T20:47:57.974Z,8.44
2022-10-09T20:50:24.731Z,8.50
2022-10-09T20:52:51.433Z,8.55
2022-10-09T20:55:18.055Z,8.61
2022-10-09T20:57:44.489Z,8.67
2022-10-09T21:00:11.457Z,8.74
2022-10-09T21:02:38.120Z,8.88
2022-10-09T21:05:04.947Z,8.94
2022-10-09T21:07:31.749Z,9.12
2022-10-09T21:09:58.274Z,9.14
2022-10-09T21:12:24.636Z,9.13
2022-10-09T21:14:51.094Z,9.01
2022-10-09T21:17:17.520Z,9.03
2022-10-09T21:19:44.179Z,8.96
2022-10-09T21:22:10.627Z,8.96
2022-10-09T21:24:37.089Z,8.94
2022-10-09T21:27:03.689Z,8.99
2022-10-09T21:29:30.054Z,9.09
2022-10-09T21:31:56.707Z,9.20
2022-10-09T21:34:23.116Z,9.21
2022-10-09T21:37:19.761Z,9.18
2022-10-09T21:39:40.027Z,9.18
2022-10-09T21:42:06.416Z,9.19
2022-10-09T21:44:32.990Z,9.23
2022-10-09T21:46:59.501Z,9.20
2022-10-09T21:49:27.494Z,9.33
2022-10-09T21:51:54.454Z,9.38
2022-10-09T21:54:21.536Z,9.46
2022-10-09T21:56:48.559Z,9.39
2022-10-09T21:59:15.201Z,9.38
2022-10-09T22:01:41.729Z,9.22
2022-10-09T22:04:08.487Z,9.19
2022-10-09T22:06:35.069Z,9.30
2022-10-09T22:09:01.504Z,9.34
2022-10-09T22:11:28.163Z,9.44
2022-10-09T22:13:57.715Z,9.42
2022-10-09T22:16:24.139Z,9.31
2022-10-09T22:18:50.704Z,9.29
2022-10-09T22:21:18.443Z,9.14
2022-10-09T22:23:45.227Z,8.96
2022-10-09T22:26:17.370Z,8.83
2022-10-09T22:28:45.123Z,8.75
2022-10-09T22:31:18.125Z,8.67
2022-10-09T22:33:44.725Z,8.63
2022-10-09T22:36:16.881Z,8.60
2022-10-09T22:38:44.424Z,8.62
2022-10-09T22:41:12.200Z,8.61
2022-10-09T22:43:40.498Z,8.51
2022-10-09T22:46:28.787Z,8.53
2022-10-09T22:48:55.735Z,8.58
2022-10-09T22:51:23.784Z,8.52
2022-10-09T22:53:50.431Z,8.51
2022-10-09T22:56:25.867Z,8.60
2022-10-09T22:58:53.191Z,8.50
2022-10-09T23:01:22.117Z,8.53
2022-10-09T23:03:48.550Z,8.52
2022-10-09T23:06:17.675Z,8.48
2022-10-09T23:08:46.781Z,8.59
2022-10-09T23:11:14.475Z,8.63
2022-10-09T23:13:41.097Z,8.51
2022-10-09T23:16:09.981Z,8.53
2022-10-09T23:18:37.317Z,8.56
2022-10-09T23:21:10.600Z,8.53
2022-10-09T23:23:37.375Z,8.51
2022-10-09T23:26:08.143Z,8.43
2022-10-09T23:28:35.735Z,8.36
2022-10-09T23:31:04.382Z,8.52
2022-10-09T23:33:30.868Z,8.57
2022-10-09T23:35:58.861Z,8.48
2022-10-09T23:38:25.478Z,8.51
2022-10-09T23:40:59.983Z,8.53
2022-10-09T23:43:28.237Z,8.55
2022-10-09T23:45:57.100Z,8.59
2022-10-09T23:48:23.991Z,8.64
2022-10-09T23:50:51.281Z,8.59
2022-10-09T23:53:18.412Z,8.54
2022-10-09T23:55:45.401Z,8.60
2022-10-09T23:58:17.191Z,8.64
